Time;durP1;ratioP1;P1;durP2;ratioP2;P2;SDS_P1;SDS_P2;PMS_P1;PMS_P2;Temp;Humidity;BMP_temperature;BMP_pressure;BME280_temperature;BME280_humidity;BME280_pressure;Samples;Min_cycle;Max_cycle;Signal;HPM_P1;HPM_P2
2021/05/29 00:02:23;;;;;;;3.85;2.25;;;10.40;90.00;;;;;;5090085;28;20058;-68
2021/05/29 00:04:49;;;;;;;4.05;2.30;;;10.30;90.10;;;;;;5095404;28;20036;-68
2021/05/29 00:07:15;;;;;;;9.18;4.07;;;10.30;90.20;;;;;;5090971;28;20039;-68
2021/05/29 00:09:41;;;;;;;4.72;2.92;;;10.30;90.30;;;;;;5092464;28;20444;-68
2021/05/29 00:12:09;;;;;;;5.10;3.13;;;10.20;90.40;;;;;;5087102;28;20047;-68
2021/05/29 00:14:36;;;;;;;12.40;4.28;;;10.20;90.50;;;;;;5091259;28;20047;-68
2021/05/29 00:17:02;;;;;;;5.40;3.50;;;10.10;90.50;;;;;;5089994;28;20032;-68
2021/05/29 00:19:28;;;;;;;2.90;2.38;;;10.10;90.60;;;;;;5093046;28;20042;-68
2021/05/29 00:21:53;;;;;;;4.13;2.88;;;10.10;90.70;;;;;;5091591;28;20028;-68
2021/05/29 00:24:19;;;;;;;5.97;3.85;;;10.00;90.70;;;;;;5093923;28;20028;-68
2021/05/29 00:26:44;;;;;;;5.80;3.10;;;10.00;90.80;;;;;;5095049;28;20058;-68
2021/05/29 00:29:10;;;;;;;7.00;3.40;;;9.90;90.90;;;;;;5093566;28;20494;-68
2021/05/29 00:31:35;;;;;;;5.68;3.25;;;9.90;91.00;;;;;;5087464;28;20036;-68
2021/05/29 00:34:01;;;;;;;4.53;3.10;;;9.90;91.10;;;;;;5095434;28;20103;-68
2021/05/29 00:36:27;;;;;;;6.80;3.20;;;10.00;91.20;;;;;;5096964;28;20066;-68
2021/05/29 00:38:52;;;;;;;8.25;3.92;;;10.10;91.20;;;;;;5095055;28;20023;-68
2021/05/29 00:41:19;;;;;;;5.18;3.28;;;10.10;91.20;;;;;;5094368;28;20416;-68
2021/05/29 00:43:46;;;;;;;6.38;4.22;;;10.10;91.20;;;;;;5094732;28;20032;-68
2021/05/29 00:46:11;;;;;;;7.25;4.13;;;10.10;91.20;;;;;;5095040;28;20506;-68
2021/05/29 00:48:38;;;;;;;5.35;4.10;;;10.10;91.20;;;;;;5093915;28;20161;-68
2021/05/29 00:51:05;;;;;;;6.18;3.80;;;10.10;91.30;;;;;;5095600;28;20020;-68
2021/05/29 00:53:33;;;;;;;7.03;3.50;;;10.10;91.40;;;;;;5094968;28;20447;-68
2021/05/29 00:56:00;;;;;;;6.28;4.32;;;10.10;91.50;;;;;;5082806;28;20029;-68
2021/05/29 00:58:27;;;;;;;6.68;4.13;;;10.00;91.60;;;;;;5088015;28;20051;-68
2021/05/29 01:00:53;;;;;;;7.07;4.35;;;10.00;91.60;;;;;;5095546;28;20027;-67
2021/05/29 01:03:19;;;;;;;6.50;4.03;;;10.00;91.60;;;;;;5096130;28;20032;-68
2021/05/29 01:05:45;;;;;;;6.10;4.13;;;10.00;91.70;;;;;;5094380;28;20398;-68
2021/05/29 01:08:12;;;;;;;8.00;5.07;;;10.00;91.80;;;;;;5094245;28;20449;-68
2021/05/29 01:10:38;;;;;;;6.35;4.57;;;9.90;91.80;;;;;;5094169;28;20073;-68
2021/05/29 01:13:06;;;;;;;5.07;4.00;;;10.00;92.00;;;;;;5095115;28;20052;-69
2021/05/29 01:15:41;;;;;;;9.98;5.22;;;9.90;92.00;;;;;;5094744;28;20116;-69
2021/05/29 01:18:10;;;;;;;11.20;5.07;;;9.90;92.00;;;;;;5092828;28;20110;-69
2021/05/29 01:20:37;;;;;;;8.88;5.30;;;9.90;92.10;;;;;;5093112;28;20027;-69
2021/05/29 01:23:03;;;;;;;9.38;5.43;;;9.90;92.10;;;;;;5093221;28;20027;-69
2021/05/29 01:25:35;;;;;;;10.70;5.53;;;9.90;92.20;;;;;;5093060;28;20032;-69
2021/05/29 01:28:08;;;;;;;7.65;5.75;;;9.90;92.20;;;;;;5088985;28;20352;-67
2021/05/29 01:30:44;;;;;;;10.52;5.75;;;9.80;92.20;;;;;;5093763;28;20028;-66
2021/05/29 01:33:12;;;;;;;9.73;6.05;;;9.80;92.30;;;;;;5092594;28;20114;-67
2021/05/29 01:35:38;;;;;;;8.88;5.90;;;9.70;92.30;;;;;;5089147;28;20088;-67
2021/05/29 01:38:05;;;;;;;7.85;5.60;;;9.70;92.40;;;;;;5092622;28;20035;-67
2021/05/29 01:40:30;;;;;;;14.70;6.53;;;9.70;92.50;;;;;;5094421;28;20386;-67
2021/05/29 01:42:58;;;;;;;9.95;6.60;;;9.70;92.60;;;;;;5095016;28;20024;-67
2021/05/29 01:45:26;;;;;;;9.23;6.28;;;9.70;92.80;;;;;;5094256;28;20028;-67
2021/05/29 01:47:52;;;;;;;12.65;6.60;;;9.60;93.10;;;;;;5093416;28;20024;-67
2021/05/29 01:50:18;;;;;;;10.52;5.65;;;9.60;92.80;;;;;;5093098;28;20077;-68
2021/05/29 01:52:55;;;;;;;13.10;7.18;;;9.60;92.90;;;;;;5093792;28;20062;-68
2021/05/29 01:55:23;;;;;;;14.10;8.77;;;9.60;93.00;;;;;;5093717;28;20040;-67
2021/05/29 01:57:50;;;;;;;12.80;7.97;;;9.60;93.10;;;;;;5094973;28;20032;-68
2021/05/29 02:00:17;;;;;;;16.20;8.35;;;9.60;93.10;;;;;;5093752;28;20077;-67
2021/05/29 02:02:43;;;;;;;12.70;7.90;;;9.50;93.10;;;;;;5093864;28;20020;-68
2021/05/29 02:05:18;;;;;;;16.05;7.63;;;9.60;93.10;;;;;;5093219;28;20103;-67
2021/05/29 02:07:44;;;;;;;10.75;7.25;;;9.50;93.20;;;;;;5091865;28;20040;-68
2021/05/29 02:10:12;;;;;;;14.90;7.88;;;9.50;93.20;;;;;;5087096;28;20096;-67
2021/05/29 02:12:40;;;;;;;15.10;8.23;;;9.50;93.30;;;;;;5086811;28;20125;-69
2021/05/29 02:15:08;;;;;;;13.45;8.10;;;9.50;93.30;;;;;;5092368;28;20041;-68
2021/05/29 02:17:33;;;;;;;14.82;8.30;;;9.40;93.30;;;;;;5089373;28;20085;-68
2021/05/29 02:19:59;;;;;;;12.80;8.13;;;9.40;93.40;;;;;;5092698;28;20473;-68
2021/05/29 02:22:24;;;;;;;14.77;7.80;;;9.40;93.40;;;;;;5093403;28;20036;-68
2021/05/29 02:24:50;;;;;;;14.50;8.38;;;9.40;93.40;;;;;;5086792;28;20082;-68
2021/05/29 02:27:15;;;;;;;11.77;8.15;;;9.40;93.50;;;;;;5090795;28;20077;-68
2021/05/29 02:29:41;;;;;;;17.70;9.02;;;9.30;93.50;;;;;;5094239;28;20473;-68
2021/05/29 02:32:06;;;;;;;15.23;9.57;;;9.30;93.60;;;;;;5089350;28;20393;-68
2021/05/29 02:34:32;;;;;;;17.02;9.10;;;9.20;93.60;;;;;;5092524;28;20040;-68
2021/05/29 02:36:57;;;;;;;18.17;9.93;;;9.20;93.70;;;;;;5091952;28;20111;-68
2021/05/29 02:39:23;;;;;;;14.77;9.07;;;9.20;93.80;;;;;;5093702;28;20431;-68
2021/05/29 02:41:48;;;;;;;13.52;8.43;;;9.20;93.80;;;;;;5092994;28;20024;-68
2021/05/29 02:44:14;;;;;;;14.45;9.93;;;9.20;93.80;;;;;;5092138;28;20057;-68
2021/05/29 02:46:39;;;;;;;12.95;8.38;;;9.10;93.90;;;;;;5091591;28;20047;-68
2021/05/29 02:49:05;;;;;;;17.40;9.73;;;9.10;94.00;;;;;;5091586;28;20039;-68
2021/05/29 02:51:30;;;;;;;20.80;10.15;;;9.10;94.00;;;;;;5092251;28;20035;-68
2021/05/29 02:53:56;;;;;;;13.35;8.88;;;9.10;94.00;;;;;;5092921;28;20039;-68
2021/05/29 02:56:21;;;;;;;15.05;9.57;;;9.10;94.10;;;;;;5092154;28;20028;-68
2021/05/29 02:58:47;;;;;;;21.88;9.13;;;9.10;94.10;;;;;;5093376;28;20075;-68
2021/05/29 03:01:12;;;;;;;15.48;9.02;;;9.10;94.00;;;;;;5091758;28;20020;-68
2021/05/29 03:03:38;;;;;;;14.57;9.38;;;9.10;94.10;;;;;;5093218;28;20031;-68
2021/05/29 03:06:04;;;;;;;14.55;8.32;;;9.00;94.10;;;;;;5081989;28;20057;-68
2021/05/29 03:08:30;;;;;;;12.93;7.57;;;9.10;94.10;;;;;;5090166;28;20058;-68
2021/05/29 03:10:56;;;;;;;12.90;7.72;;;9.00;94.10;;;;;;5092786;28;20547;-68
2021/05/29 03:13:21;;;;;;;13.90;7.93;;;9.10;94.10;;;;;;5092598;28;20074;-68
2021/05/29 03:15:48;;;;;;;13.88;8.18;;;9.00;94.00;;;;;;5095818;28;20031;-68
2021/05/29 03:18:15;;;;;;;15.18;9.05;;;9.00;94.10;;;;;;5092471;28;20048;-68
2021/05/29 03:20:40;;;;;;;11.60;8.10;;;8.90;94.10;;;;;;5090764;28;20355;-68
2021/05/29 03:23:06;;;;;;;13.05;8.40;;;8.90;94.10;;;;;;5092225;28;20281;-68
2021/05/29 03:25:32;;;;;;;13.00;8.32;;;8.90;94.10;;;;;;5092506;28;20374;-68
2021/05/29 03:27:58;;;;;;;14.25;8.52;;;8.90;94.20;;;;;;5090793;28;20053;-68
2021/05/29 03:30:26;;;;;;;14.15;8.18;;;8.80;94.10;;;;;;5090778;28;20292;-68
2021/05/29 03:32:52;;;;;;;12.93;8.68;;;8.80;94.20;;;;;;5091852;28;20363;-68
2021/05/29 03:35:19;;;;;;;12.35;8.90;;;8.80;94.30;;;;;;5091010;28;20080;-68
2021/05/29 03:37:45;;;;;;;16.42;8.75;;;8.80;94.30;;;;;;5091465;28;20035;-68
2021/05/29 03:40:13;;;;;;;13.48;8.48;;;8.80;94.30;;;;;;5089520;28;20028;-68
2021/05/29 03:42:39;;;;;;;15.23;9.63;;;8.80;94.40;;;;;;5092334;28;20036;-68
2021/05/29 03:45:09;;;;;;;13.02;8.73;;;8.80;94.40;;;;;;5092770;28;20075;-68
2021/05/29 03:47:35;;;;;;;16.23;9.15;;;8.70;94.40;;;;;;5091578;28;20024;-68
2021/05/29 03:50:00;;;;;;;14.55;8.80;;;8.70;94.40;;;;;;5091100;28;20390;-68
2021/05/29 03:52:26;;;;;;;17.63;9.70;;;8.70;94.40;;;;;;5092135;28;20032;-68
2021/05/29 03:54:52;;;;;;;16.10;9.90;;;8.70;94.40;;;;;;5093405;28;20381;-68
2021/05/29 03:57:17;;;;;;;14.90;8.98;;;8.80;94.50;;;;;;5092261;28;20028;-67
2021/05/29 03:59:43;;;;;;;20.73;10.95;;;8.70;94.50;;;;;;5094194;28;20024;-68
2021/05/29 04:02:08;;;;;;;14.18;9.38;;;8.70;94.50;;;;;;5093908;28;20047;-68
2021/05/29 04:04:34;;;;;;;15.55;10.38;;;8.70;94.60;;;;;;5091064;28;20033;-68
2021/05/29 04:07:00;;;;;;;18.65;9.85;;;8.70;94.60;;;;;;5083788;28;20028;-68
2021/05/29 04:09:26;;;;;;;15.57;9.65;;;8.80;94.60;;;;;;5094149;28;20392;-68
2021/05/29 04:11:51;;;;;;;15.07;8.65;;;8.80;94.60;;;;;;5084622;28;20045;-68
2021/05/29 04:14:17;;;;;;;13.10;9.30;;;8.80;94.60;;;;;;5094900;28;20074;-68
2021/05/29 04:16:43;;;;;;;16.08;10.45;;;8.80;94.60;;;;;;5096545;28;20378;-68
2021/05/29 04:19:08;;;;;;;15.75;9.30;;;8.80;94.60;;;;;;5094997;28;20024;-68
2021/05/29 04:21:34;;;;;;;17.23;9.70;;;8.90;94.60;;;;;;5094582;28;20032;-68
2021/05/29 04:23:59;;;;;;;12.23;7.80;;;8.90;94.60;;;;;;5095167;28;20031;-69
2021/05/29 04:26:25;;;;;;;14.80;8.88;;;8.90;94.70;;;;;;5095963;28;20028;-68
2021/05/29 04:28:50;;;;;;;15.23;9.10;;;8.90;94.70;;;;;;5094657;28;20031;-68
2021/05/29 04:31:17;;;;;;;17.95;10.70;;;9.00;94.70;;;;;;5086187;28;20020;-69
2021/05/29 04:33:42;;;;;;;13.38;9.32;;;9.10;94.60;;;;;;5093449;28;20016;-68
2021/05/29 04:36:08;;;;;;;16.67;9.05;;;9.10;94.60;;;;;;5095045;28;20478;-67
2021/05/29 04:38:34;;;;;;;13.77;9.20;;;9.10;94.60;;;;;;5092194;28;20078;-68
2021/05/29 04:40:59;;;;;;;19.38;10.40;;;9.20;94.60;;;;;;5089003;28;20485;-67
2021/05/29 04:43:25;;;;;;;21.05;11.40;;;9.30;94.60;;;;;;5096800;28;20031;-67
2021/05/29 04:45:50;;;;;;;15.15;9.48;;;9.30;94.50;;;;;;5096406;28;20028;-67
2021/05/29 04:48:17;;;;;;;22.27;10.32;;;9.40;94.50;;;;;;5095390;28;20058;-67
2021/05/29 04:53:28;;;;;;;16.40;9.88;;;9.60;94.60;;;;;;5085668;28;20074;-68
2021/05/29 04:55:54;;;;;;;14.05;10.10;;;9.90;95.00;;;;;;5094125;28;20036;-68
2021/05/29 04:58:20;;;;;;;14.25;8.50;;;10.30;95.20;;;;;;5095415;28;20028;-67
2021/05/29 05:00:46;;;;;;;12.38;8.23;;;10.70;95.30;;;;;;5092182;28;20024;-68
2021/05/29 05:03:12;;;;;;;11.80;7.30;;;11.10;95.10;;;;;;5080699;28;20024;-68
2021/05/29 05:05:38;;;;;;;9.88;7.43;;;11.60;94.90;;;;;;5085662;28;22272;-69
2021/05/29 05:08:04;;;;;;;10.38;7.15;;;12.00;94.40;;;;;;5082330;28;20039;-67
2021/05/29 05:10:30;;;;;;;12.32;7.38;;;12.30;94.20;;;;;;5089894;28;20060;-67
2021/05/29 05:12:55;;;;;;;10.52;6.97;;;12.70;93.60;;;;;;5091904;28;20040;-68
2021/05/29 05:15:21;;;;;;;14.38;6.95;;;13.00;93.30;;;;;;5088321;28;20070;-68
2021/05/29 05:17:47;;;;;;;9.55;7.25;;;13.20;92.30;;;;;;5085088;28;20024;-68
2021/05/29 05:20:13;;;;;;;10.50;6.45;;;13.40;91.70;;;;;;5076062;28;20035;-68
2021/05/29 05:22:38;;;;;;;10.93;7.68;;;13.50;91.30;;;;;;5088122;28;20028;-68
2021/05/29 05:25:06;;;;;;;10.93;7.00;;;13.60;90.70;;;;;;5079629;28;20043;-68
2021/05/29 05:27:33;;;;;;;9.27;6.28;;;13.60;90.00;;;;;;5096323;28;20031;-68
2021/05/29 05:29:59;;;;;;;15.15;7.75;;;13.80;89.60;;;;;;5099889;28;20052;-68
2021/05/29 05:32:27;;;;;;;10.23;7.57;;;13.90;88.70;;;;;;5092139;28;20036;-68
2021/05/29 05:34:53;;;;;;;8.57;5.97;;;13.90;86.70;;;;;;5092979;28;20077;-68
2021/05/29 05:37:18;;;;;;;10.23;6.85;;;14.00;86.60;;;;;;5077689;28;20021;-68
2021/05/29 05:39:44;;;;;;;10.45;6.75;;;14.00;85.90;;;;;;5085811;28;20077;-68
2021/05/29 05:42:10;;;;;;;10.35;7.40;;;14.10;85.00;;;;;;5093635;28;20035;-68
2021/05/29 05:44:36;;;;;;;10.52;7.80;;;14.10;84.00;;;;;;5092938;28;20520;-68
2021/05/29 05:47:01;;;;;;;9.25;6.80;;;14.00;83.10;;;;;;5092743;28;20371;-68
2021/05/29 05:49:28;;;;;;;16.98;9.15;;;13.80;83.00;;;;;;5101491;28;20088;-68
2021/05/29 05:51:54;;;;;;;12.80;7.32;;;13.80;83.10;;;;;;5090610;28;20034;-68
2021/05/29 05:54:20;;;;;;;12.00;7.47;;;13.70;83.10;;;;;;5091748;28;20044;-68
2021/05/29 05:56:45;;;;;;;10.25;7.80;;;13.70;82.90;;;;;;5093717;28;20048;-68
2021/05/29 05:59:11;;;;;;;17.05;8.07;;;13.70;82.90;;;;;;5088450;28;21009;-68
2021/05/29 06:01:38;;;;;;;13.80;8.70;;;13.70;82.90;;;;;;5080935;28;20056;-68
2021/05/29 06:04:04;;;;;;;10.48;7.65;;;13.80;82.70;;;;;;5090791;28;20636;-68
2021/05/29 06:06:29;;;;;;;13.88;8.27;;;13.70;82.30;;;;;;5105960;28;20016;-68
2021/05/29 06:08:57;;;;;;;14.02;8.52;;;13.80;82.20;;;;;;5090958;28;20024;-68
2021/05/29 06:11:23;;;;;;;13.70;7.88;;;13.80;82.20;;;;;;5092532;28;20563;-67
2021/05/29 06:21:34;;;;;;;13.10;8.50;;;13.80;81.40;;;;;;5093415;28;20051;-69
2021/05/29 06:23:59;;;;;;;13.27;8.75;;;13.80;81.40;;;;;;5090968;28;20341;-69
2021/05/29 06:26:26;;;;;;;13.35;9.25;;;13.80;81.70;;;;;;5092300;28;20027;-69
2021/05/29 06:28:51;;;;;;;12.82;8.75;;;13.80;81.80;;;;;;5093741;28;20073;-69
2021/05/29 06:31:17;;;;;;;17.63;9.90;;;13.80;81.70;;;;;;5085201;28;20498;-69
2021/05/29 06:33:42;;;;;;;14.57;10.40;;;13.80;81.50;;;;;;5101386;28;20073;-69
2021/05/29 06:36:08;;;;;;;14.88;9.57;;;13.80;81.30;;;;;;5092651;28;20481;-69
2021/05/29 06:38:34;;;;;;;15.18;10.88;;;13.80;81.90;;;;;;5092510;28;20016;-69
2021/05/29 06:41:00;;;;;;;13.60;9.38;;;13.80;82.00;;;;;;5088539;28;20062;-68
2021/05/29 06:43:25;;;;;;;14.98;10.20;;;14.00;81.70;;;;;;5092737;28;20024;-69
2021/05/29 06:45:51;;;;;;;14.25;10.60;;;14.00;81.70;;;;;;5092870;28;20036;-69
2021/05/29 06:48:19;;;;;;;11.63;8.55;;;14.10;81.70;;;;;;5086282;28;20073;-69
2021/05/29 06:50:50;;;;;;;15.95;10.18;;;14.20;81.70;;;;;;5087786;28;20032;-68
2021/05/29 06:53:19;;;;;;;13.50;10.27;;;14.30;81.60;;;;;;5093266;28;20106;-68
2021/05/29 06:58:48;;;;;;;15.05;10.38;;;14.30;80.90;;;;;;5093564;28;20105;-68
2021/05/29 07:01:15;;;;;;;15.75;9.30;;;14.30;80.60;;;;;;5076762;28;20084;-69
2021/05/29 07:03:41;;;;;;;12.80;8.57;;;14.40;80.70;;;;;;5086735;28;20016;-69
2021/05/29 07:06:06;;;;;;;18.35;11.75;;;14.40;80.60;;;;;;5088957;28;20369;-68
2021/05/29 07:08:32;;;;;;;16.45;10.60;;;14.40;80.90;;;;;;5092324;28;20031;-68
2021/05/29 07:10:58;;;;;;;11.65;9.25;;;14.50;81.10;;;;;;5090886;28;20106;-68
2021/05/29 07:13:23;;;;;;;13.27;9.48;;;14.60;81.00;;;;;;5086989;28;20051;-68
2021/05/29 07:15:49;;;;;;;14.40;10.13;;;14.70;80.60;;;;;;5090510;28;20032;-68
2021/05/29 07:18:15;;;;;;;12.73;9.27;;;14.80;80.70;;;;;;5091687;28;20028;-68
2021/05/29 07:20:41;;;;;;;12.52;9.25;;;14.90;80.40;;;;;;5088270;28;20026;-68
2021/05/29 07:23:07;;;;;;;12.80;8.98;;;15.00;79.90;;;;;;5090880;28;20111;-68
2021/05/29 07:25:34;;;;;;;13.98;10.05;;;15.00;79.40;;;;;;5094393;28;20040;-68
2021/05/29 07:28:00;;;;;;;13.27;9.70;;;15.00;79.20;;;;;;5091886;28;20028;-68
2021/05/29 07:30:25;;;;;;;13.57;10.07;;;15.00;79.30;;;;;;5089865;28;20121;-68
2021/05/29 07:32:52;;;;;;;16.13;10.18;;;15.10;78.90;;;;;;5090975;28;20020;-68
2021/05/29 07:35:17;;;;;;;14.73;9.45;;;15.10;78.90;;;;;;5092645;28;20103;-69
2021/05/29 07:37:44;;;;;;;14.40;9.98;;;15.20;78.90;;;;;;5092623;28;20103;-69
2021/05/29 07:40:10;;;;;;;14.75;9.40;;;15.30;79.00;;;;;;5092127;28;20032;-68
2021/05/29 07:42:36;;;;;;;12.15;9.07;;;15.40;78.90;;;;;;5093336;28;20059;-69
2021/05/29 07:45:04;;;;;;;13.57;9.20;;;15.50;78.10;;;;;;5090095;28;20060;-69
2021/05/29 07:47:29;;;;;;;14.60;9.13;;;15.50;77.50;;;;;;5090378;28;20025;-68
2021/05/29 07:49:55;;;;;;;13.45;9.02;;;15.50;77.70;;;;;;5091257;28;20035;-69
2021/05/29 07:52:20;;;;;;;14.35;9.40;;;15.50;77.80;;;;;;5092404;28;20028;-68
2021/05/29 07:54:46;;;;;;;15.52;10.27;;;15.50;76.50;;;;;;5089629;28;20443;-69
2021/05/29 07:57:11;;;;;;;12.88;9.95;;;15.40;77.20;;;;;;5092350;28;20080;-69
2021/05/29 07:59:38;;;;;;;12.00;9.10;;;15.50;76.90;;;;;;5088871;28;20088;-69
2021/05/29 08:02:05;;;;;;;14.80;9.43;;;15.60;76.80;;;;;;5090821;28;20021;-68
2021/05/29 08:04:31;;;;;;;14.35;8.27;;;15.50;76.40;;;;;;5089030;28;20032;-68
2021/05/29 08:06:56;;;;;;;13.63;8.65;;;15.60;76.60;;;;;;5092446;28;20039;-69
2021/05/29 08:09:22;;;;;;;13.23;8.80;;;15.70;75.90;;;;;;5091869;28;20032;-69
2021/05/29 08:11:48;;;;;;;14.80;8.57;;;15.70;76.00;;;;;;5091227;28;20492;-69
2021/05/29 08:14:15;;;;;;;13.93;8.35;;;15.70;75.90;;;;;;5090118;28;20016;-69
2021/05/29 08:16:41;;;;;;;11.23;7.32;;;15.80;75.80;;;;;;5088522;28;20107;-67
2021/05/29 08:19:09;;;;;;;12.45;8.02;;;15.70;74.90;;;;;;5085028;28;20108;-67
2021/05/29 08:21:35;;;;;;;15.50;9.38;;;15.70;74.70;;;;;;5090731;28;20105;-67
2021/05/29 08:24:01;;;;;;;13.85;8.82;;;15.90;75.10;;;;;;5083852;28;20020;-67
2021/05/29 08:26:27;;;;;;;13.48;9.38;;;16.00;74.90;;;;;;5092241;28;20054;-67
2021/05/29 08:28:54;;;;;;;10.32;7.53;;;16.00;74.20;;;;;;5093001;28;20440;-67
2021/05/29 08:31:20;;;;;;;10.57;6.88;;;16.10;74.20;;;;;;5092271;28;20040;-67
2021/05/29 08:33:45;;;;;;;12.07;7.55;;;16.20;74.70;;;;;;5091908;28;20073;-68
2021/05/29 08:36:11;;;;;;;12.52;7.50;;;16.20;72.80;;;;;;5091719;28;20032;-67
2021/05/29 08:38:37;;;;;;;9.02;5.78;;;16.20;72.80;;;;;;5090086;28;20024;-68
2021/05/29 08:41:03;;;;;;;9.35;6.45;;;16.20;71.60;;;;;;5092491;28;20077;-67
2021/05/29 08:43:29;;;;;;;11.75;7.63;;;16.20;71.60;;;;;;5091569;28;20035;-67
2021/05/29 08:45:54;;;;;;;10.30;7.53;;;16.30;71.70;;;;;;5095058;28;20032;-67
2021/05/29 08:48:20;;;;;;;10.30;8.00;;;16.40;72.40;;;;;;5095093;28;20117;-67
2021/05/29 08:53:30;;;;;;;12.27;8.48;;;16.60;71.90;;;;;;5094596;28;20043;-67
2021/05/29 08:56:00;;;;;;;10.05;7.70;;;16.70;71.30;;;;;;5092427;28;20385;-67
2021/05/29 08:58:27;;;;;;;10.68;7.85;;;16.80;72.40;;;;;;5094921;28;20054;-67
2021/05/29 09:00:52;;;;;;;10.93;7.32;;;16.90;72.40;;;;;;5095510;28;20446;-67
2021/05/29 09:03:18;;;;;;;11.63;7.25;;;17.10;71.90;;;;;;5092034;28;20095;-67
2021/05/29 09:05:53;;;;;;;11.23;7.70;;;17.10;71.30;;;;;;5094597;28;20123;-67
2021/05/29 09:08:21;;;;;;;12.02;7.97;;;17.20;71.00;;;;;;5107076;28;20039;-67
2021/05/29 09:10:53;;;;;;;9.20;6.97;;;17.20;70.60;;;;;;5092073;28;20028;-67
2021/05/29 09:13:24;;;;;;;11.23;7.80;;;17.40;71.40;;;;;;5109980;28;20059;-67
2021/05/29 09:15:54;;;;;;;11.95;8.65;;;17.60;70.10;;;;;;5096957;28;20040;-67
2021/05/29 09:18:35;;;;;;;8.82;6.35;;;17.60;69.10;;;;;;5095290;28;20088;-68
2021/05/29 09:21:32;;;;;;;11.82;8.63;;;17.70;70.00;;;;;;5094320;28;20478;-67
2021/05/29 09:24:04;;;;;;;12.65;7.85;;;17.90;68.90;;;;;;5093577;28;20032;-67
2021/05/29 09:26:46;;;;;;;12.05;8.50;;;17.90;68.60;;;;;;5095570;28;20024;-67
2021/05/29 09:29:28;;;;;;;10.88;7.45;;;17.80;69.40;;;;;;5095515;28;20367;-68
2021/05/29 09:32:04;;;;;;;9.30;7.28;;;17.90;70.10;;;;;;5091238;28;20445;-67
2021/05/29 09:34:29;;;;;;;9.48;7.50;;;18.10;69.60;;;;;;5096182;28;20036;-67
2021/05/29 09:37:07;;;;;;;10.55;7.50;;;18.30;69.10;;;;;;5102816;28;20374;-68
2021/05/29 09:39:33;;;;;;;9.27;6.72;;;18.30;68.20;;;;;;5103144;28;20081;-67
2021/05/29 09:42:00;;;;;;;12.73;6.70;;;18.30;67.80;;;;;;5097143;28;20523;-67
2021/05/29 09:44:29;;;;;;;7.55;5.28;;;18.40;67.50;;;;;;5093228;28;20065;-67
2021/05/29 09:46:58;;;;;;;8.07;4.97;;;18.50;67.90;;;;;;5091979;28;20371;-67
2021/05/29 09:49:45;;;;;;;9.10;6.60;;;18.80;67.30;;;;;;5094153;28;20047;-68
2021/05/29 09:52:30;;;;;;;12.02;5.68;;;19.00;65.60;;;;;;5093086;28;20016;-68
2021/05/29 09:55:00;;;;;;;8.40;5.05;;;19.00;66.30;;;;;;5095473;28;20232;-67
2021/05/29 09:57:26;;;;;;;6.25;5.15;;;19.10;65.50;;;;;;5083868;28;20085;-67
2021/05/29 09:59:57;;;;;;;6.05;4.05;;;19.10;64.70;;;;;;5089174;28;20024;-67
2021/05/29 10:02:24;;;;;;;9.25;5.05;;;19.30;64.60;;;;;;5090078;28;20028;-67
2021/05/29 10:04:54;;;;;;;8.38;5.50;;;19.40;64.60;;;;;;5090272;28;20486;-66
2021/05/29 10:07:21;;;;;;;7.88;5.45;;;19.40;63.70;;;;;;5086958;28;20020;-67
2021/05/29 10:09:47;;;;;;;8.93;5.32;;;19.30;63.60;;;;;;5092185;28;20031;-67
2021/05/29 10:12:14;;;;;;;8.00;4.82;;;19.30;63.40;;;;;;5093512;28;20044;-67
2021/05/29 10:14:40;;;;;;;7.20;5.53;;;19.40;63.30;;;;;;5094038;28;20031;-68
2021/05/29 10:17:07;;;;;;;7.90;5.57;;;19.50;62.80;;;;;;5089225;28;20365;-68
2021/05/29 10:19:34;;;;;;;8.88;5.80;;;19.60;62.20;;;;;;5093348;28;20024;-67
2021/05/29 10:22:09;;;;;;;7.30;5.00;;;19.50;61.80;;;;;;5090866;28;20028;-68
2021/05/29 10:24:36;;;;;;;8.73;5.22;;;19.60;62.30;;;;;;5093540;28;20148;-68
2021/05/29 10:27:07;;;;;;;6.55;4.82;;;19.60;61.60;;;;;;5092586;28;20028;-67
2021/05/29 10:29:33;;;;;;;6.65;4.80;;;19.70;62.90;;;;;;5093888;28;20035;-67
2021/05/29 10:32:18;;;;;;;6.80;3.90;;;20.00;61.40;;;;;;5092333;28;20063;-68
2021/05/29 10:34:55;;;;;;;9.70;5.07;;;19.90;60.90;;;;;;5087565;28;20058;-67
2021/05/29 10:37:41;;;;;;;7.55;4.63;;;20.00;61.30;;;;;;5091183;28;20101;-67
2021/05/29 10:40:25;;;;;;;7.72;6.05;;;20.00;62.10;;;;;;5087566;28;20039;-67
2021/05/29 10:43:16;;;;;;;6.82;4.40;;;20.10;60.80;;;;;;5088093;28;20012;-67
2021/05/29 10:45:50;;;;;;;9.38;5.30;;;20.10;60.50;;;;;;5083658;28;20539;-67
2021/05/29 10:48:20;;;;;;;7.47;4.65;;;20.00;60.40;;;;;;5091992;28;20541;-67
2021/05/29 10:50:59;;;;;;;8.27;5.10;;;20.00;61.80;;;;;;5090355;28;20494;-68
2021/05/29 10:53:34;;;;;;;8.25;4.95;;;20.20;60.10;;;;;;5089932;28;20062;-67
2021/05/29 10:56:15;;;;;;;5.95;5.13;;;20.20;60.00;;;;;;5089058;28;20029;-67
2021/05/29 10:58:56;;;;;;;7.55;5.13;;;20.20;60.90;;;;;;5087612;28;20027;-67
2021/05/29 11:01:22;;;;;;;8.52;5.45;;;20.20;60.00;;;;;;5084081;28;20020;-68
2021/05/29 11:04:11;;;;;;;8.38;5.35;;;20.00;59.80;;;;;;5088646;28;20050;-68
2021/05/29 11:06:38;;;;;;;8.25;4.32;;;19.80;61.20;;;;;;5088828;28;20036;-67
2021/05/29 11:09:05;;;;;;;5.38;3.70;;;19.70;61.60;;;;;;5087926;28;20045;-67
2021/05/29 11:11:37;;;;;;;4.90;3.65;;;19.70;61.90;;;;;;5086093;28;20374;-67
2021/05/29 11:14:11;;;;;;;5.40;4.23;;;19.90;62.10;;;;;;5086893;28;20028;-68
2021/05/29 11:16:45;;;;;;;4.75;3.80;;;20.00;61.40;;;;;;5086298;28;20027;-68
2021/05/29 11:19:27;;;;;;;5.60;4.30;;;20.00;60.80;;;;;;5087154;28;20104;-68
2021/05/29 11:22:00;;;;;;;6.57;5.27;;;19.80;60.90;;;;;;5093082;28;20032;-68
2021/05/29 11:24:29;;;;;;;7.07;4.88;;;19.60;61.40;;;;;;5081235;28;20279;-69
2021/05/29 11:26:55;;;;;;;5.40;4.05;;;19.60;62.50;;;;;;5086311;28;20499;-67
2021/05/29 11:29:21;;;;;;;8.65;5.25;;;19.70;62.30;;;;;;5089688;28;20028;-68
2021/05/29 11:31:48;;;;;;;6.43;3.63;;;20.10;60.90;;;;;;5085753;28;20028;-67
2021/05/29 11:34:14;;;;;;;5.93;2.90;;;20.20;60.40;;;;;;5083179;28;20478;-67
2021/05/29 11:36:42;;;;;;;5.47;3.30;;;20.30;60.20;;;;;;5081681;28;20044;-67
2021/05/29 11:39:19;;;;;;;7.28;4.30;;;20.40;60.20;;;;;;5085364;28;20144;-67
2021/05/29 11:41:44;;;;;;;9.93;5.50;;;20.60;59.70;;;;;;5078052;28;20028;-67
2021/05/29 11:44:22;;;;;;;6.10;4.93;;;20.50;60.30;;;;;;5095714;28;20477;-67
2021/05/29 11:46:48;;;;;;;7.22;5.03;;;20.40;60.90;;;;;;5106547;28;20024;-67
2021/05/29 11:49:16;;;;;;;9.23;4.90;;;20.10;61.10;;;;;;5095768;28;20023;-67
2021/05/29 11:51:46;;;;;;;6.68;4.20;;;20.00;62.10;;;;;;5113654;28;20016;-67
2021/05/29 11:54:17;;;;;;;7.60;3.90;;;20.10;62.90;;;;;;5104176;28;20121;-67
2021/05/29 11:56:47;;;;;;;5.70;4.05;;;20.40;61.20;;;;;;5095421;28;20025;-68
2021/05/29 11:59:13;;;;;;;4.38;3.03;;;20.50;60.50;;;;;;5092689;28;20030;-68
2021/05/29 12:01:43;;;;;;;5.88;3.83;;;20.50;60.20;;;;;;5094670;28;20494;-67
2021/05/29 12:04:10;;;;;;;5.68;3.42;;;20.30;59.70;;;;;;5091039;28;20455;-67
2021/05/29 12:06:37;;;;;;;6.25;3.17;;;20.10;60.30;;;;;;5090866;28;20028;-68
2021/05/29 12:09:07;;;;;;;5.18;3.35;;;20.00;61.00;;;;;;5090093;28;20032;-67
2021/05/29 12:11:34;;;;;;;6.55;3.80;;;20.00;61.00;;;;;;5090639;28;20028;-68
2021/05/29 12:14:10;;;;;;;4.45;2.80;;;20.00;59.80;;;;;;5090401;28;20020;-68
2021/05/29 12:16:38;;;;;;;5.13;3.08;;;20.10;60.10;;;;;;5089284;28;20382;-67
2021/05/29 12:19:05;;;;;;;5.38;2.40;;;20.30;59.20;;;;;;5081490;28;20021;-68
2021/05/29 12:21:50;;;;;;;5.38;2.78;;;20.50;59.50;;;;;;5095957;28;20024;-68
2021/05/29 12:24:16;;;;;;;5.75;3.08;;;20.70;59.10;;;;;;5091641;28;20032;-68
2021/05/29 12:26:43;;;;;;;5.30;2.80;;;20.70;59.40;;;;;;5093388;28;20111;-68
2021/05/29 12:29:09;;;;;;;5.70;2.67;;;20.90;59.10;;;;;;5096044;28;20024;-68
2021/05/29 12:31:55;;;;;;;3.33;2.22;;;20.90;58.20;;;;;;5094642;28;20103;-68
2021/05/29 12:34:29;;;;;;;4.07;2.35;;;20.80;57.30;;;;;;5093495;28;20020;-68
2021/05/29 12:37:05;;;;;;;4.57;2.00;;;20.60;57.20;;;;;;5093649;28;20032;-68
2021/05/29 12:39:49;;;;;;;4.22;1.98;;;20.60;58.40;;;;;;5093408;28;20595;-67
2021/05/29 12:42:22;;;;;;;4.35;2.80;;;20.80;59.00;;;;;;5093836;28;20024;-68
2021/05/29 12:44:49;;;;;;;7.05;3.00;;;20.90;58.20;;;;;;5090956;28;20107;-68
2021/05/29 12:47:20;;;;;;;4.57;2.67;;;20.80;56.80;;;;;;5095351;28;20035;-68
2021/05/29 12:49:46;;;;;;;4.40;2.85;;;20.80;56.90;;;;;;5095020;28;20040;-68
2021/05/29 12:52:25;;;;;;;4.18;2.45;;;21.10;57.10;;;;;;5095469;28;20032;-68
2021/05/29 12:54:51;;;;;;;4.72;2.30;;;21.40;56.90;;;;;;5094974;28;20024;-68
2021/05/29 12:57:17;;;;;;;2.90;2.35;;;21.20;55.90;;;;;;5096283;28;20058;-68
2021/05/29 12:59:43;;;;;;;4.68;2.25;;;21.00;56.40;;;;;;5094198;28;20044;-68
2021/05/29 13:02:33;;;;;;;3.88;2.53;;;20.80;56.50;;;;;;5084410;28;20036;-67
2021/05/29 13:08:11;;;;;;;6.13;3.15;;;20.60;58.40;;;;;;5049735;28;20055;-67